KCGZ/CGZ METAR and TAF weather

Enter ICAO airport designator
Station Type Date Time Source
KCGZ METAR 2020/08/11 17:56 UTC NOAA

KCGZ 111756Z AUTO 30003KT 10SM CLR 37/17 A2993 RMK AO2 SLP114 T03720167 10372 20278 58002


Station Type Date Time Source
KCGZ Decoded METAR 2020/08/11 17:56 UTC NOAA

Casa Grande, Casa Grande Municipal Airport, AZ, United States (KCGZ) 32-57N 111-46W
Aug 11, 2020 - 01:56 PM EDT / 2020.08.11 1756 UTC
Wind: from the WNW (300 degrees) at 3 MPH (3 KT):0
Visibility: 10 mile(s):0
Sky conditions: clear
Temperature: 99.0 F (37.2 C)
Heat index: 100.0 F (37.8 C):1
Dew Point: 62.1 F (16.7 C)
Relative Humidity: 29%
Pressure (altimeter): 29.93 in. Hg (1013 hPa)
Pressure tendency: 0.01 inches (0.2 hPa) lower than three hours ago
ob: KCGZ 111756Z AUTO 30003KT 10SM CLR 37/17 A2993 RMK AO2 SLP114 T03720167 10372 20278 58002
cycle: 18

Station Type Date Time Source
KCGZ TAF UTC NOAA

Error!

Example: see airport list